Time;durP1;ratioP1;P1;durP2;ratioP2;P2;SDS_P1;SDS_P2;PMS_P1;PMS_P2;Temp;Humidity;BMP_temperature;BMP_pressure;BME280_temperature;BME280_humidity;BME280_pressure;Samples;Min_cycle;Max_cycle;Signal;HPM_P1;HPM_P2
2023/09/21 00:05:06;;;;;;;2.63;2.53;;;20.20;36.40;;;;;;10260052;28;20870;-76
2023/09/21 00:10:11;;;;;;;3.00;2.80;;;20.10;36.60;;;;;;10260131;28;20230;-76
2023/09/21 00:15:21;;;;;;;2.73;2.53;;;20.10;36.60;;;;;;10258278;28;20227;-76
2023/09/21 00:20:35;;;;;;;2.73;2.53;;;20.00;36.30;;;;;;10258856;28;20231;-76
2023/09/21 00:25:40;;;;;;;2.50;2.30;;;20.00;36.50;;;;;;10261073;28;20228;-76
2023/09/21 00:30:43;;;;;;;2.83;2.63;;;20.00;36.50;;;;;;10258977;28;20243;-75
2023/09/21 00:35:48;;;;;;;4.10;3.10;;;19.90;36.40;;;;;;10257476;28;20231;-76
2023/09/21 00:40:58;;;;;;;3.10;2.90;;;19.90;36.40;;;;;;10256877;28;20255;-75
2023/09/21 00:46:04;;;;;;;4.63;3.70;;;19.80;36.70;;;;;;10256103;28;20219;-75
2023/09/21 00:51:11;;;;;;;3.50;2.67;;;19.70;36.30;;;;;;10255929;28;20278;-75
2023/09/21 00:56:18;;;;;;;2.90;2.70;;;19.50;36.80;;;;;;10262575;28;20220;-75
2023/09/21 01:01:28;;;;;;;3.73;3.43;;;19.40;36.70;;;;;;10253732;28;21139;-75
2023/09/21 01:06:33;;;;;;;2.87;2.67;;;19.40;37.30;;;;;;10256123;28;20595;-75
2023/09/21 01:11:38;;;;;;;2.57;2.37;;;19.30;37.10;;;;;;10251346;28;20600;-75
2023/09/21 01:16:41;;;;;;;5.27;2.97;;;19.30;36.80;;;;;;10256047;28;20236;-75
2023/09/21 01:21:48;;;;;;;3.17;2.97;;;19.20;36.80;;;;;;10257857;28;20232;-75
2023/09/21 01:26:53;;;;;;;3.60;3.30;;;19.20;37.50;;;;;;10259468;28;20220;-75
2023/09/21 01:31:57;;;;;;;3.43;3.13;;;19.20;37.00;;;;;;10257151;28;20720;-75
2023/09/21 01:37:00;;;;;;;3.53;3.23;;;19.10;36.70;;;;;;10258046;28;20230;-75
2023/09/21 01:42:05;;;;;;;3.83;3.00;;;19.00;36.90;;;;;;10254979;28;20302;-75
2023/09/21 01:47:09;;;;;;;3.47;3.17;;;19.00;37.50;;;;;;10257370;28;20243;-75
2023/09/21 01:52:13;;;;;;;3.93;3.33;;;19.00;37.30;;;;;;10265324;28;20234;-75
2023/09/21 01:57:17;;;;;;;3.90;3.30;;;19.00;37.10;;;;;;10262128;28;20259;-75
2023/09/21 02:02:21;;;;;;;3.23;2.93;;;18.80;37.60;;;;;;10254140;28;20223;-75
2023/09/21 02:07:26;;;;;;;3.47;3.17;;;18.60;37.50;;;;;;10264307;28;20698;-75
2023/09/21 02:12:36;;;;;;;3.30;3.07;;;18.30;37.70;;;;;;10258947;28;20255;-75
2023/09/21 02:17:41;;;;;;;4.80;3.00;;;18.10;38.90;;;;;;10261504;28;20240;-75
2023/09/21 02:22:46;;;;;;;3.37;3.07;;;18.00;38.40;;;;;;10262121;28;20315;-75
2023/09/21 02:27:51;;;;;;;3.20;2.83;;;18.00;38.90;;;;;;10260088;28;20242;-75
2023/09/21 02:32:55;;;;;;;2.67;2.47;;;18.00;38.90;;;;;;10264092;28;20327;-75
2023/09/21 02:37:59;;;;;;;3.40;3.10;;;18.00;38.70;;;;;;10261713;28;20244;-75
2023/09/21 02:43:03;;;;;;;3.00;2.70;;;18.10;38.50;;;;;;10268966;28;21221;-75
2023/09/21 02:48:08;;;;;;;4.00;3.10;;;18.20;38.90;;;;;;10261061;28;20310;-75
2023/09/21 02:53:12;;;;;;;2.80;2.60;;;18.20;38.60;;;;;;10262559;28;20228;-75
2023/09/21 02:58:19;;;;;;;2.53;2.33;;;18.30;38.60;;;;;;10266186;28;20306;-75
2023/09/21 03:03:23;;;;;;;3.33;3.00;;;18.30;38.80;;;;;;10256151;28;20315;-75
2023/09/21 03:08:26;;;;;;;3.17;2.97;;;18.30;38.30;;;;;;10264708;28;20235;-75
2023/09/21 03:13:31;;;;;;;3.20;3.00;;;18.30;38.20;;;;;;10261124;28;20652;-75
2023/09/21 03:18:34;;;;;;;2.50;2.30;;;18.30;38.50;;;;;;10257496;28;20485;-75
2023/09/21 03:23:39;;;;;;;4.20;2.87;;;18.30;38.20;;;;;;10265590;28;20235;-75
2023/09/21 03:28:45;;;;;;;3.77;3.10;;;18.30;38.10;;;;;;10263540;28;20610;-75
2023/09/21 03:33:49;;;;;;;3.03;2.83;;;18.20;38.40;;;;;;10257803;28;20710;-75
2023/09/21 03:38:54;;;;;;;2.87;2.63;;;18.20;38.30;;;;;;10260870;28;20231;-75
2023/09/21 03:43:59;;;;;;;2.80;2.60;;;18.10;38.40;;;;;;10258121;28;20958;-72
2023/09/21 03:49:04;;;;;;;3.10;2.90;;;18.10;38.60;;;;;;10265853;28;20259;-73
2023/09/21 03:54:07;;;;;;;2.80;2.60;;;18.10;38.20;;;;;;10261630;28;21058;-72
2023/09/21 03:59:12;;;;;;;2.90;2.47;;;18.10;38.30;;;;;;10254798;28;20748;-73
2023/09/21 04:04:18;;;;;;;3.37;3.07;;;18.00;38.50;;;;;;10262560;28;20290;-76
2023/09/21 04:09:22;;;;;;;2.73;2.53;;;17.90;38.30;;;;;;10258419;28;20330;-73
2023/09/21 04:14:27;;;;;;;2.73;2.53;;;17.80;38.40;;;;;;10261889;28;20642;-72
2023/09/21 04:19:30;;;;;;;3.37;2.43;;;17.80;38.80;;;;;;10258465;28;20235;-72
2023/09/21 04:24:33;;;;;;;3.30;3.00;;;17.80;38.70;;;;;;10251107;28;20252;-74
2023/09/21 04:29:38;;;;;;;3.60;3.30;;;17.80;38.80;;;;;;10258644;28;20238;-72
2023/09/21 04:34:41;;;;;;;3.30;3.03;;;17.80;39.00;;;;;;10255565;28;20242;-72
2023/09/21 04:39:45;;;;;;;3.43;2.87;;;17.80;38.60;;;;;;10257670;28;20314;-74
2023/09/21 04:44:49;;;;;;;3.27;3.07;;;17.70;38.60;;;;;;10262602;28;20246;-75
2023/09/21 04:49:54;;;;;;;3.60;3.30;;;17.60;39.00;;;;;;10256758;28;20652;-75
2023/09/21 04:55:00;;;;;;;2.73;2.53;;;17.50;38.50;;;;;;10260789;28;20309;-75
2023/09/21 05:00:08;;;;;;;3.30;3.00;;;17.40;38.60;;;;;;10249050;28;20223;-75
2023/09/21 05:05:13;;;;;;;2.93;2.73;;;17.30;39.50;;;;;;10253830;28;20329;-73
2023/09/21 05:10:16;;;;;;;3.00;2.70;;;17.20;39.30;;;;;;10257428;28;20233;-72
2023/09/21 05:15:22;;;;;;;4.50;3.33;;;17.30;39.40;;;;;;10253730;28;20263;-73
2023/09/21 05:20:25;;;;;;;2.90;2.70;;;17.30;39.80;;;;;;10249314;28;20232;-75
2023/09/21 05:25:28;;;;;;;2.77;2.57;;;17.30;39.60;;;;;;10257494;28;20246;-71
2023/09/21 05:30:33;;;;;;;3.40;3.03;;;17.30;40.00;;;;;;10265464;28;20231;-73
2023/09/21 05:35:36;;;;;;;3.17;2.83;;;17.40;40.30;;;;;;10267807;28;20281;-73
2023/09/21 05:40:40;;;;;;;4.50;3.27;;;17.40;39.90;;;;;;10268272;28;20591;-73
2023/09/21 05:45:45;;;;;;;3.57;3.20;;;17.50;39.90;;;;;;10265991;28;20246;-72
2023/09/21 05:50:49;;;;;;;4.30;2.90;;;17.50;40.30;;;;;;10263065;28;20231;-73
2023/09/21 05:55:53;;;;;;;3.10;2.83;;;17.50;40.00;;;;;;10267652;28;20236;-72
2023/09/21 06:00:59;;;;;;;8.20;3.30;;;17.60;40.20;;;;;;10270044;28;20292;-72
2023/09/21 06:06:06;;;;;;;4.83;3.33;;;17.60;40.60;;;;;;10264672;28;20235;-73
2023/09/21 06:11:10;;;;;;;3.90;3.30;;;17.60;40.30;;;;;;10260817;28;20335;-73
2023/09/21 06:16:14;;;;;;;3.37;3.07;;;17.70;40.60;;;;;;10277394;28;20616;-72
2023/09/21 06:21:18;;;;;;;3.53;3.20;;;17.70;40.80;;;;;;10256369;28;20231;-72
2023/09/21 06:26:22;;;;;;;5.00;3.50;;;17.80;40.80;;;;;;10263012;28;20266;-72
2023/09/21 06:31:28;;;;;;;4.17;3.50;;;17.80;40.80;;;;;;10271459;28;20228;-72
2023/09/21 06:36:33;;;;;;;7.43;3.13;;;17.90;41.40;;;;;;10264541;28;20321;-72
2023/09/21 06:41:37;;;;;;;4.07;3.70;;;17.90;41.00;;;;;;10270906;28;20303;-71
2023/09/21 06:46:42;;;;;;;4.40;4.00;;;18.00;41.20;;;;;;10252327;28;20946;-72
2023/09/21 06:51:46;;;;;;;5.30;4.80;;;18.10;41.80;;;;;;10248552;28;20221;-72
2023/09/21 06:56:50;;;;;;;5.20;4.80;;;18.10;41.50;;;;;;10250520;28;20324;-72
2023/09/21 07:01:54;;;;;;;4.73;4.43;;;18.20;41.80;;;;;;10253778;28;20840;-72
2023/09/21 07:07:00;;;;;;;5.77;5.33;;;18.30;42.50;;;;;;10255877;28;20274;-72
2023/09/21 07:12:05;;;;;;;6.17;5.67;;;18.40;42.10;;;;;;10253099;28;20232;-72
2023/09/21 07:17:10;;;;;;;7.20;6.63;;;18.40;42.50;;;;;;10256096;28;20319;-72
2023/09/21 07:22:14;;;;;;;7.63;6.93;;;18.60;43.10;;;;;;10266777;28;20302;-72
2023/09/21 07:27:17;;;;;;;7.33;6.63;;;18.60;42.90;;;;;;10255514;28;21014;-72
2023/09/21 07:32:21;;;;;;;7.60;6.90;;;18.70;43.00;;;;;;10260946;28;20233;-72
2023/09/21 07:37:25;;;;;;;9.70;8.43;;;18.80;43.70;;;;;;10260216;28;20290;-71
2023/09/21 07:42:30;;;;;;;10.33;9.33;;;18.90;43.50;;;;;;10263624;28;20594;-71
2023/09/21 07:47:34;;;;;;;10.57;9.67;;;19.10;43.80;;;;;;10260598;28;20658;-71
2023/09/21 07:52:37;;;;;;;11.00;10.00;;;19.30;44.80;;;;;;10257224;28;20259;-71
2023/09/21 07:57:40;;;;;;;12.57;11.47;;;19.50;44.30;;;;;;10259267;28;20233;-71
2023/09/21 08:02:45;;;;;;;14.50;13.20;;;19.70;44.50;;;;;;10257738;28;20249;-71
2023/09/21 08:07:49;;;;;;;15.43;13.23;;;20.00;44.80;;;;;;10264240;28;20251;-71
2023/09/21 08:12:55;;;;;;;13.13;12.03;;;20.20;44.50;;;;;;10257714;28;20235;-71
2023/09/21 08:18:00;;;;;;;15.33;13.73;;;20.50;44.40;;;;;;10257718;28;20860;-71
2023/09/21 08:23:04;;;;;;;15.13;13.63;;;20.70;44.70;;;;;;10255065;28;20223;-71
2023/09/21 08:28:08;;;;;;;15.27;13.77;;;21.00;44.30;;;;;;10265430;28;20315;-71
2023/09/21 08:33:13;;;;;;;15.00;13.60;;;21.30;44.40;;;;;;10253126;28;20231;-71
2023/09/21 08:38:17;;;;;;;14.60;13.20;;;21.50;44.50;;;;;;10253906;28;20228;-71
2023/09/21 08:43:25;;;;;;;15.57;13.97;;;21.80;44.40;;;;;;10254279;28;20216;-71
2023/09/21 08:48:31;;;;;;;13.73;12.37;;;22.10;44.20;;;;;;10256054;28;20307;-71
2023/09/21 08:53:36;;;;;;;13.27;11.97;;;22.40;44.20;;;;;;10254163;28;20876;-71
2023/09/21 08:58:41;;;;;;;14.27;12.97;;;22.70;43.80;;;;;;10255622;28;20247;-71
2023/09/21 09:03:47;;;;;;;14.20;12.80;;;23.00;43.60;;;;;;10249316;28;20283;-71
2023/09/21 09:08:51;;;;;;;13.43;12.20;;;23.20;43.00;;;;;;10252805;28;20732;-71
2023/09/21 09:13:55;;;;;;;13.60;12.40;;;23.50;42.70;;;;;;10257787;28;20228;-70
2023/09/21 09:19:00;;;;;;;12.90;11.80;;;23.70;42.40;;;;;;10259113;28;20303;-71
2023/09/21 09:24:06;;;;;;;12.97;11.80;;;23.90;42.40;;;;;;10269110;28;20311;-71
2023/09/21 09:29:12;;;;;;;10.93;9.97;;;24.10;42.30;;;;;;10252452;28;20220;-71
2023/09/21 09:34:18;;;;;;;11.97;10.90;;;24.40;42.10;;;;;;10256933;28;20248;-70
2023/09/21 09:39:23;;;;;;;10.73;9.83;;;24.60;41.70;;;;;;10262333;28;20324;-71
2023/09/21 09:44:31;;;;;;;12.20;11.10;;;24.80;41.60;;;;;;10270073;28;20239;-71
2023/09/21 09:49:38;;;;;;;10.13;9.23;;;25.10;41.00;;;;;;10274400;28;20231;-71
2023/09/21 09:54:42;;;;;;;9.07;8.27;;;25.30;41.10;;;;;;10264552;28;20228;-71
2023/09/21 09:59:47;;;;;;;9.47;8.37;;;25.50;41.20;;;;;;10270819;28;20232;-71
2023/09/21 10:04:52;;;;;;;7.20;6.60;;;25.60;40.80;;;;;;10266293;28;20653;-71
2023/09/21 10:09:57;;;;;;;6.67;6.07;;;25.80;40.20;;;;;;10272181;28;20270;-71
2023/09/21 10:15:02;;;;;;;7.37;6.07;;;26.00;40.40;;;;;;10275824;28;20253;-71
2023/09/21 10:20:14;;;;;;;6.40;5.90;;;26.20;39.50;;;;;;10276482;28;20220;-71
2023/09/21 10:25:36;;;;;;;6.40;5.80;;;26.40;38.90;;;;;;10274108;28;20234;-71
2023/09/21 10:30:41;;;;;;;6.77;6.27;;;26.60;38.60;;;;;;10277094;28;20243;-71
2023/09/21 10:35:46;;;;;;;7.33;6.73;;;26.70;38.20;;;;;;10283594;28;20254;-71
2023/09/21 10:40:51;;;;;;;6.17;5.60;;;26.80;37.70;;;;;;10274267;28;20216;-71
2023/09/21 10:45:58;;;;;;;6.07;5.57;;;26.80;38.50;;;;;;10277436;28;20695;-71
2023/09/21 10:51:05;;;;;;;5.63;5.23;;;27.00;37.70;;;;;;10271766;28;20220;-73
2023/09/21 10:56:08;;;;;;;5.60;5.10;;;27.10;37.90;;;;;;10269330;28;20227;-72
2023/09/21 11:01:13;;;;;;;4.90;4.50;;;27.20;38.00;;;;;;10269920;28;20307;-71
2023/09/21 11:06:17;;;;;;;4.30;3.90;;;27.20;37.70;;;;;;10268917;28;20224;-72
2023/09/21 11:11:21;;;;;;;5.30;4.90;;;27.40;37.20;;;;;;10271581;28;20319;-72
2023/09/21 11:16:25;;;;;;;4.30;3.90;;;27.50;37.30;;;;;;10272478;28;20236;-72
2023/09/21 11:21:30;;;;;;;4.93;4.43;;;27.60;37.20;;;;;;10265438;28;20246;-71
2023/09/21 11:26:34;;;;;;;4.47;4.07;;;27.70;36.50;;;;;;10271783;28;20239;-71
2023/09/21 11:31:37;;;;;;;3.30;3.10;;;27.70;36.40;;;;;;10270900;28;20738;-72
2023/09/21 11:36:41;;;;;;;3.37;3.13;;;27.80;36.50;;;;;;10275324;28;20236;-72
2023/09/21 11:41:46;;;;;;;3.13;2.83;;;27.80;35.80;;;;;;10267843;28;20238;-72
2023/09/21 11:46:49;;;;;;;2.50;2.30;;;27.90;35.70;;;;;;10268387;28;20824;-72
2023/09/21 11:51:56;;;;;;;2.53;2.33;;;27.90;36.00;;;;;;10268057;28;20228;-72
2023/09/21 11:57:04;;;;;;;2.70;2.50;;;28.00;34.40;;;;;;10269274;28;20246;-72
2023/09/21 12:02:09;;;;;;;2.43;2.23;;;28.10;34.60;;;;;;10269680;28;20930;-73
2023/09/21 12:07:14;;;;;;;2.70;2.50;;;28.20;34.80;;;;;;10265100;28;20243;-73
2023/09/21 12:12:18;;;;;;;2.60;2.40;;;28.30;34.30;;;;;;10252273;28;20323;-73
2023/09/21 12:17:21;;;;;;;2.63;2.43;;;28.40;34.20;;;;;;10254605;28;20223;-73
2023/09/21 12:22:26;;;;;;;3.30;2.40;;;28.50;34.00;;;;;;10255476;28;20228;-72
2023/09/21 12:27:31;;;;;;;2.67;2.27;;;28.50;33.10;;;;;;10255053;28;20243;-72
2023/09/21 12:32:34;;;;;;;2.30;2.10;;;28.60;33.20;;;;;;10254171;28;20224;-72
2023/09/21 12:37:40;;;;;;;3.27;2.30;;;28.70;32.70;;;;;;10251919;28;20232;-72
2023/09/21 12:42:45;;;;;;;2.30;2.10;;;28.70;31.80;;;;;;10253518;28;20645;-72
2023/09/21 12:47:49;;;;;;;2.40;2.20;;;28.70;32.50;;;;;;10254452;28;20240;-72
2023/09/21 12:52:54;;;;;;;2.20;2.10;;;28.70;32.40;;;;;;10257976;28;20299;-72
2023/09/21 12:57:58;;;;;;;2.30;2.00;;;28.80;31.50;;;;;;10252804;28;20618;-72
2023/09/21 13:03:02;;;;;;;2.40;2.20;;;28.80;31.60;;;;;;10256002;28;20227;-72
2023/09/21 13:08:08;;;;;;;2.40;2.20;;;28.80;32.50;;;;;;10253324;28;20635;-72
2023/09/21 13:13:11;;;;;;;3.23;2.00;;;28.80;30.70;;;;;;10255579;28;20228;-72
2023/09/21 13:18:15;;;;;;;2.10;1.90;;;28.80;31.10;;;;;;10252462;28;20331;-72
2023/09/21 13:23:26;;;;;;;1.90;1.80;;;28.90;30.80;;;;;;10254702;28;20301;-72
2023/09/21 13:28:29;;;;;;;4.07;2.07;;;28.90;30.80;;;;;;10256345;28;20737;-72
2023/09/21 13:33:32;;;;;;;2.30;2.10;;;29.00;30.90;;;;;;10248600;28;20224;-71
2023/09/21 13:38:37;;;;;;;1.90;1.80;;;29.00;30.90;;;;;;10252969;28;20235;-71
2023/09/21 13:43:40;;;;;;;1.90;1.80;;;29.10;30.10;;;;;;10252901;28;20314;-71
2023/09/21 13:48:43;;;;;;;1.77;1.67;;;29.10;30.20;;;;;;10256410;28;20236;-72
2023/09/21 13:53:48;;;;;;;2.10;1.90;;;29.20;30.10;;;;;;10263391;28;20343;-72
2023/09/21 13:58:52;;;;;;;1.73;1.63;;;29.30;29.40;;;;;;10259908;28;20231;-72
2023/09/21 14:03:57;;;;;;;1.80;1.70;;;29.30;29.80;;;;;;10259458;28;20224;-72
2023/09/21 14:09:04;;;;;;;1.70;1.60;;;29.30;29.50;;;;;;10274057;28;20223;-72
2023/09/21 14:14:07;;;;;;;1.97;1.87;;;29.40;29.00;;;;;;10264103;28;20225;-72
2023/09/21 14:19:10;;;;;;;1.67;1.57;;;29.50;29.30;;;;;;10259108;28;20238;-72
2023/09/21 14:24:15;;;;;;;1.60;1.50;;;29.50;28.80;;;;;;10262098;28;20750;-72
2023/09/21 14:29:19;;;;;;;1.70;1.60;;;29.50;28.00;;;;;;10259728;28;20258;-72
2023/09/21 14:34:22;;;;;;;1.80;1.70;;;29.50;28.40;;;;;;10253617;28;20244;-72
2023/09/21 14:39:27;;;;;;;1.50;1.40;;;29.50;28.20;;;;;;10255014;28;20908;-72
2023/09/21 14:44:31;;;;;;;1.90;1.80;;;29.40;27.20;;;;;;10245755;28;20330;-72
2023/09/21 14:49:34;;;;;;;2.10;1.80;;;29.40;27.70;;;;;;10256312;28;20340;-72
2023/09/21 14:54:42;;;;;;;1.50;1.40;;;29.40;27.50;;;;;;10266435;28;20231;-72
2023/09/21 14:59:46;;;;;;;2.00;1.80;;;29.40;27.00;;;;;;10262315;28;20236;-72
2023/09/21 15:04:49;;;;;;;1.73;1.63;;;29.40;27.60;;;;;;10259160;28;20797;-72
2023/09/21 15:09:53;;;;;;;1.80;1.70;;;29.40;27.50;;;;;;10252893;28;20608;-72
2023/09/21 15:14:58;;;;;;;2.53;2.27;;;29.40;27.10;;;;;;10250452;28;20701;-71
2023/09/21 15:20:02;;;;;;;2.70;1.70;;;29.40;27.60;;;;;;10247755;28;20234;-73
2023/09/21 15:25:07;;;;;;;2.20;1.60;;;29.40;27.50;;;;;;10249210;28;20271;-72
2023/09/21 15:30:11;;;;;;;1.67;1.57;;;29.40;26.70;;;;;;10248777;28;20328;-72
2023/09/21 15:35:15;;;;;;;1.63;1.50;;;29.40;27.00;;;;;;10248731;28;20731;-72
2023/09/21 15:40:19;;;;;;;3.03;1.80;;;29.40;27.10;;;;;;10243434;28;20240;-71
2023/09/21 15:45:25;;;;;;;2.00;1.77;;;29.30;26.40;;;;;;10242483;28;20232;-72
2023/09/21 15:50:29;;;;;;;1.83;1.70;;;29.30;27.40;;;;;;10244736;28;20290;-72
2023/09/21 15:55:33;;;;;;;1.87;1.77;;;29.20;27.00;;;;;;10249890;28;20248;-72
2023/09/21 16:00:36;;;;;;;1.60;1.50;;;29.20;26.80;;;;;;10255216;28;20227;-72
2023/09/21 16:05:40;;;;;;;1.90;1.70;;;29.20;27.00;;;;;;10259117;28;20239;-71
2023/09/21 16:10:44;;;;;;;2.73;1.90;;;29.10;27.20;;;;;;10246287;28;20232;-71
2023/09/21 16:15:47;;;;;;;2.07;1.90;;;29.10;27.40;;;;;;10256789;28;20236;-72
2023/09/21 16:20:51;;;;;;;1.90;1.70;;;29.10;27.90;;;;;;10255343;28;20233;-71
2023/09/21 16:25:55;;;;;;;2.03;1.93;;;29.00;28.00;;;;;;10251998;28;20236;-71
2023/09/21 16:30:59;;;;;;;1.90;1.80;;;29.00;28.00;;;;;;10253577;28;20307;-72
2023/09/21 16:36:02;;;;;;;2.03;1.83;;;28.90;28.30;;;;;;10249384;28;20258;-73
2023/09/21 16:41:07;;;;;;;1.80;1.70;;;28.80;28.20;;;;;;10250812;28;20235;-72
2023/09/21 16:46:10;;;;;;;2.20;2.00;;;28.80;28.40;;;;;;10252507;28;20255;-73
2023/09/21 16:51:34;;;;;;;2.07;1.90;;;28.70;28.60;;;;;;10254992;28;20266;-71
2023/09/21 16:56:38;;;;;;;1.80;1.70;;;28.60;28.70;;;;;;10255786;28;20317;-72
2023/09/21 17:01:42;;;;;;;2.27;1.80;;;28.50;28.90;;;;;;10251114;28;20303;-72
2023/09/21 17:06:45;;;;;;;5.00;1.90;;;28.40;29.30;;;;;;10247058;28;20236;-72
2023/09/21 17:11:50;;;;;;;2.17;1.97;;;28.20;29.10;;;;;;10251971;28;20235;-73
2023/09/21 17:16:53;;;;;;;4.57;1.97;;;28.10;29.50;;;;;;10248221;28;20235;-73
2023/09/21 17:21:57;;;;;;;3.60;1.83;;;28.00;29.40;;;;;;10250644;28;20228;-73
2023/09/21 17:27:03;;;;;;;2.47;2.10;;;27.90;29.60;;;;;;10254310;28;20223;-73
2023/09/21 17:32:06;;;;;;;4.47;2.87;;;27.80;29.90;;;;;;10250660;28;20752;-73
2023/09/21 17:37:10;;;;;;;4.83;3.47;;;27.60;30.00;;;;;;10252187;28;20327;-73
2023/09/21 17:42:15;;;;;;;7.60;5.50;;;27.40;30.00;;;;;;10253308;28;20231;-73
2023/09/21 17:47:18;;;;;;;6.13;4.33;;;27.20;29.80;;;;;;10253065;28;20236;-73
2023/09/21 17:52:22;;;;;;;4.47;3.97;;;27.10;29.80;;;;;;10253213;28;20319;-73
2023/09/21 17:57:27;;;;;;;5.10;3.23;;;26.90;29.70;;;;;;10254516;28;21002;-73
2023/09/21 18:02:32;;;;;;;5.70;3.23;;;26.80;30.00;;;;;;10248426;28;20240;-73
2023/09/21 18:07:36;;;;;;;3.50;3.10;;;26.70;30.00;;;;;;10250661;28;20238;-72
2023/09/21 18:12:41;;;;;;;3.17;2.87;;;26.50;30.20;;;;;;10246455;28;20315;-73
2023/09/21 18:17:44;;;;;;;5.50;3.40;;;26.40;30.60;;;;;;10257807;28;20236;-73
2023/09/21 18:22:48;;;;;;;4.73;2.90;;;26.30;30.40;;;;;;10251976;28;20237;-73
2023/09/21 18:27:54;;;;;;;4.77;3.13;;;26.10;30.70;;;;;;10254912;28;20228;-73
2023/09/21 18:32:57;;;;;;;4.00;3.40;;;26.00;31.00;;;;;;10257489;28;20226;-73
2023/09/21 18:38:01;;;;;;;3.50;3.20;;;25.80;30.90;;;;;;10261734;28;20227;-74
2023/09/21 18:43:05;;;;;;;5.37;3.57;;;25.70;30.90;;;;;;10263322;28;20223;-76
2023/09/21 18:48:10;;;;;;;3.10;2.70;;;25.50;31.20;;;;;;10255016;28;20738;-76
2023/09/21 18:53:13;;;;;;;4.53;3.30;;;25.40;31.30;;;;;;10260036;28;20749;-75
2023/09/21 18:58:20;;;;;;;5.07;3.80;;;25.40;31.50;;;;;;10259168;28;20233;-76
2023/09/21 19:03:23;;;;;;;3.57;3.27;;;25.30;31.60;;;;;;10255060;28;20231;-76
2023/09/21 19:08:27;;;;;;;3.77;3.10;;;25.10;31.70;;;;;;10254381;28;20232;-76
2023/09/21 19:13:33;;;;;;;3.30;3.10;;;25.10;31.80;;;;;;10248761;28;20947;-76
2023/09/21 19:18:36;;;;;;;4.97;2.90;;;25.00;32.00;;;;;;10248545;28;20238;-76
2023/09/21 19:23:40;;;;;;;3.33;2.63;;;24.90;31.70;;;;;;10250560;28;20227;-76
2023/09/21 19:28:46;;;;;;;4.20;3.00;;;24.80;32.00;;;;;;10255004;28;20227;-76
2023/09/21 19:33:49;;;;;;;3.20;3.00;;;24.70;32.30;;;;;;10247407;28;20255;-76
2023/09/21 19:38:52;;;;;;;4.50;3.40;;;24.70;32.30;;;;;;10248683;28;20235;-75
2023/09/21 19:43:57;;;;;;;3.07;2.77;;;24.60;32.20;;;;;;10250142;28;20233;-76
2023/09/21 19:49:00;;;;;;;2.83;2.63;;;24.60;32.70;;;;;;10252222;28;20219;-76
2023/09/21 19:54:04;;;;;;;3.63;2.70;;;24.50;32.40;;;;;;10245773;28;20227;-75
2023/09/21 19:59:09;;;;;;;3.00;2.70;;;24.50;32.70;;;;;;10246391;28;20757;-75
2023/09/21 20:04:12;;;;;;;2.60;2.40;;;24.50;33.10;;;;;;10247253;28;20228;-76
2023/09/21 20:09:17;;;;;;;3.70;2.60;;;24.40;32.90;;;;;;10247572;28;20303;-76
2023/09/21 20:14:22;;;;;;;3.40;2.43;;;24.30;33.00;;;;;;10245269;28;20227;-76
2023/09/21 20:19:26;;;;;;;3.23;2.70;;;24.30;33.40;;;;;;10247772;28;20232;-76
2023/09/21 20:24:29;;;;;;;5.27;2.33;;;24.20;33.20;;;;;;10247220;28;20244;-76
2023/09/21 20:29:35;;;;;;;2.80;2.60;;;24.10;33.30;;;;;;10249562;28;20940;-76
2023/09/21 20:34:38;;;;;;;2.70;2.50;;;24.10;33.90;;;;;;10247140;28;20482;-76
2023/09/21 20:39:41;;;;;;;3.23;2.60;;;24.10;33.70;;;;;;10245915;28;20342;-76
2023/09/21 20:44:48;;;;;;;3.33;3.03;;;24.10;33.90;;;;;;10242501;28;20236;-76
2023/09/21 20:49:51;;;;;;;3.07;2.80;;;24.10;34.30;;;;;;10245568;28;20223;-76
2023/09/21 20:54:55;;;;;;;2.50;2.30;;;24.10;34.30;;;;;;10249976;28;20228;-76
2023/09/21 20:59:59;;;;;;;3.40;3.03;;;24.10;34.30;;;;;;10255332;28;20223;-76
2023/09/21 21:05:03;;;;;;;3.43;3.17;;;24.10;34.60;;;;;;10252039;28;20635;-75
2023/09/21 21:10:07;;;;;;;3.67;3.13;;;24.00;34.30;;;;;;10251174;28;20227;-76
2023/09/21 21:15:12;;;;;;;3.33;3.07;;;24.10;34.70;;;;;;10253483;28;20634;-76
2023/09/21 21:20:16;;;;;;;3.33;3.03;;;24.00;35.10;;;;;;10259621;28;20230;-76
2023/09/21 21:25:19;;;;;;;5.07;3.30;;;24.00;34.80;;;;;;10257649;28;20228;-75
2023/09/21 21:30:24;;;;;;;3.67;3.23;;;23.90;34.90;;;;;;10256574;28;20238;-75
2023/09/21 21:35:27;;;;;;;5.20;3.13;;;23.90;35.30;;;;;;10255717;28;20826;-76
2023/09/21 21:40:30;;;;;;;3.20;3.00;;;23.90;35.10;;;;;;10255787;28;20315;-76
2023/09/21 21:45:35;;;;;;;4.17;3.30;;;23.80;35.40;;;;;;10252567;28;20331;-76
2023/09/21 21:50:39;;;;;;;3.50;3.20;;;23.80;36.10;;;;;;10255506;28;20374;-76
2023/09/21 21:55:42;;;;;;;3.60;3.30;;;23.70;35.90;;;;;;10260104;28;20259;-76
2023/09/21 22:00:47;;;;;;;3.37;3.03;;;23.70;35.90;;;;;;10260193;28;20282;-76
2023/09/21 22:05:51;;;;;;;3.27;3.07;;;23.70;36.50;;;;;;10247898;28;20604;-76
2023/09/21 22:10:54;;;;;;;3.63;3.00;;;23.60;36.10;;;;;;10251749;28;20803;-76
2023/09/21 22:15:59;;;;;;;3.40;2.90;;;23.70;36.10;;;;;;10253854;28;20234;-76
2023/09/21 22:21:08;;;;;;;5.67;3.20;;;23.60;36.30;;;;;;10253843;28;20236;-75
2023/09/21 22:26:12;;;;;;;4.70;2.60;;;23.60;37.00;;;;;;10252802;28;20228;-75
2023/09/21 22:31:17;;;;;;;2.00;1.90;;;23.40;36.40;;;;;;10255815;28;20220;-76
2023/09/21 22:36:22;;;;;;;4.33;1.50;;;23.20;36.80;;;;;;10253852;28;20615;-76
2023/09/21 22:41:25;;;;;;;2.73;1.40;;;23.10;36.50;;;;;;10253249;28;20231;-75
2023/09/21 22:46:29;;;;;;;1.10;1.00;;;22.90;36.60;;;;;;10254084;28;20948;-76
2023/09/21 22:51:33;;;;;;;2.07;1.00;;;22.90;37.10;;;;;;10253851;28;20263;-76
2023/09/21 22:56:36;;;;;;;0.80;0.70;;;22.80;36.70;;;;;;10251713;28;20247;-75
2023/09/21 23:01:41;;;;;;;0.87;0.60;;;22.70;36.50;;;;;;10252118;28;20367;-76
2023/09/21 23:06:44;;;;;;;0.73;0.53;;;22.70;36.80;;;;;;10252256;28;20739;-76
2023/09/21 23:11:53;;;;;;;0.60;0.60;;;22.60;36.20;;;;;;10251370;28;20235;-76
2023/09/21 23:16:58;;;;;;;0.80;0.80;;;22.50;36.20;;;;;;10259101;28;20270;-76
2023/09/21 23:22:02;;;;;;;1.13;0.60;;;22.50;36.60;;;;;;10249800;28;20717;-76
2023/09/21 23:27:05;;;;;;;0.50;0.50;;;22.40;36.20;;;;;;10253351;28;20224;-75
2023/09/21 23:32:09;;;;;;;0.50;0.50;;;22.40;36.10;;;;;;10244498;28;20780;-75
2023/09/21 23:37:14;;;;;;;0.47;0.47;;;22.30;36.10;;;;;;10250556;28;20243;-76
2023/09/21 23:42:19;;;;;;;1.40;0.60;;;22.20;35.80;;;;;;10248857;28;20235;-76
2023/09/21 23:47:24;;;;;;;0.40;0.40;;;22.20;35.90;;;;;;10248309;28;21073;-75
2023/09/21 23:52:27;;;;;;;0.50;0.50;;;22.10;36.00;;;;;;10244756;28;21014;-75
2023/09/21 23:57:31;;;;;;;0.50;0.50;;;22.00;35.90;;;;;;10240481;28;20242;-75
